Main page
METAR-TAF:

METAR-TAF

Airports :

Wattay International Airport

Vientiane, Laos

latitude: 17-57N, longitude: 102-34E, elevation: 171 m

Current weather observation

The report was made 25 minutes ago, at 16:30 UTC
Wind 2 kt from the Southwest
Temperature 29°C
Humidity 79%
Pressure 1004 hPa
Visibility: 5000 m
mist,

METAR: VLVT 221630Z 22002KT 5000 BR NSC 29/25 Q1004 NOSIG

Time: 23:55 (16:55 UTC)

Forecast

The report was made 5 hours and 55 minutes ago, at 11:00 UTC
Forecast valid from 22 at 12 UTC to 23 at 12 UTC
Wind 4 kt from the East
Visibility: 8000 m
Few clouds at a height of 2000 ft
Scattered clouds at a height of 5000 ft

TAF: VLVT 221100Z 2212/2312 09004KT 8000 FEW020 SCT050

Weather observations and forecasts of more than 4000 airports (METAR and TAF reports).

The available stations are represented by yellow and red dots on the map.

Hover mouse over dot to see the name of the station.

Then click to see weather observations and forecasts.

To change the map : click on the green buttons with a black cross to zoom in, on the green button with a dash to zoom out, or on the green arrows for adjacent maps.


METAR-TAF: